Pagrindinis puslapis
METAR-TAF:

METAR-TAF

Oro uostai :

Río Hato, Panama

platuma: 08-22-33N, ilguma: 080-07-40W, Aukštis: 32 m

METAR: trūkstamas

Laikas: 05:04 (10:04 UTC)

Prognozė

Ataskaita buvo paskelbta 11 valandos ir 4 minutes, ne 23:00 UTC
Prognozė galioja nuo 21 metu 00 UTC su 22 metu 06 UTC
Vėjas 8 kt iš Pietų
Matomumas 10 km arba daugiau
Išsisklaidę debesys ne aukštis 1600 ft
Su prošvaistėmis ne aukštis 6000 ft
Laikinai
nuo 21 metu 05 UTC su 21 metu 07 UTC
Vėjas 5 kt iš Rytų/Šiaurės Rytų
Laikinai
nuo 21 metu 18 UTC su 21 metu 20 UTC
Vėjas 9 kt iš Pietų
Matomumas: 6000 m
Išsisklaidę debesys ne aukštis 1600 ft, Liūtiniai kamuoliniai debesys.
Su prošvaistėmis ne aukštis 8000 ft
perkūnija, lietus

TAF: MPSM 202300Z 2100/2206 17008KT 9999 SCT016 BKN060 TEMPO 2105/2107 06005KT TEMPO 2118/2120 18009KT 6000 TSRA SCT016CB BKN080

Orai ataskaitas ir orų prognozės (METAR, TAF).

turimą stotys yra geltonos ir raudonos taškus žemėlapyje.

Perkelti pele per norėdami pamatyti stoties vardą.

Tada spustelėkite, norėdami matyti oro stebėjimo ir prognozės.

Norėdami pakeisti žemėlapį: spustelėkite ant žalios mygtukų su juodo kryžiaus žemyn,; žalią mygtuką su brūkšneliu, jei norite nutolinti; arba žalių rodyklių gretimoms žemėlapius.


METAR-TAF: